Overview Statistics Trail Chart Weather Telemetry Raw packets
 

This is the latest recevied weather packets stored in our database for station/object KD8DNO-13. If no packets are shown the sender has not sent any weather packets the latest 10 day(s).

<< 37 38 39 40 41 42 43 >>
Time Temp. Humidity Pressure Rain* Wind** Luminosity Snow
1788300483 30.56° C 68% 1019.3 hPa 0 mm - - -
1788300183 30° C 70% 1019.3 hPa 0 mm - - -
1788299883 30.56° C 69% 1019.3 hPa 0 mm - - -
1788299584 30.56° C 69% 1019.3 hPa 0 mm - - -
1788299284 30.56° C 69% 1019.3 hPa 0 mm - - -
1788298983 30° C 70% 1019.3 hPa 0 mm - - -
1788298683 30.56° C 70% 1019.3 hPa 0 mm - - -
1788298383 30.56° C 69% 1019.3 hPa 0 mm - - -
1788298083 30.56° C 67% 1019.3 hPa 0 mm - - -
1788297783 30.56° C 67% 1019.3 hPa 0 mm - - -
1788297484 31.11° C 66% 1019.3 hPa 0 mm - - -
1788297183 31.67° C 65% 1019.3 hPa 0 mm - - -
1788296883 31.67° C 65% 1019.3 hPa 0 mm - - -
1788296583 31.67° C 66% 1018.9 hPa 0 mm - - -
1788296283 31.11° C 66% 1018.9 hPa 0 mm - - -
1788295984 32.78° C 62% 1018.9 hPa 0 mm - - -
1788295684 32.22° C 62% 1018.9 hPa 0 mm - - -
1788295384 32.22° C 63% 1018.9 hPa 0 mm - - -
1788295084 32.22° C 62% 1018.9 hPa 0 mm - - -
1788294784 31.67° C 70% 1018.9 hPa 0 mm - - -
1788294484 32.22° C 67% 1018.9 hPa 0 mm - - -
1788293884 31.67° C 69% 1018.9 hPa 0 mm - - -
1788293583 31.67° C 72% 1018.9 hPa 0 mm - - -
1788293284 30.56° C 78% 1018.9 hPa 0.25 mm - - -
1788292983 30° C 81% 1018.9 hPa 0.76 mm - - -

* Rain latest hour (hover to see other rain measurements)
** Current wind speed in m/s (hover to see current wind gust speed)